createdAt,value
2018-06-24T00:00:08.399Z,99.99
2018-06-24T00:01:08.159Z,99.99
2018-06-24T00:02:08.180Z,99.99
2018-06-24T00:03:08.462Z,99.99
2018-06-24T00:05:08.244Z,99.99
2018-06-24T00:06:08.524Z,99.99
2018-06-24T00:07:08.289Z,99.99
2018-06-24T00:08:08.574Z,99.99
2018-06-24T00:09:08.592Z,99.99
2018-06-24T00:10:08.613Z,99.99
2018-06-24T00:11:08.635Z,99.99
2018-06-24T00:12:23.313Z,99.99
2018-06-24T00:13:08.675Z,99.99
2018-06-24T00:14:08.441Z,99.99
2018-06-24T00:15:08.721Z,99.99
2018-06-24T00:16:08.511Z,99.99
2018-06-24T00:17:08.522Z,99.99
2018-06-24T00:18:08.785Z,99.99
2018-06-24T00:19:08.810Z,99.99
2018-06-24T00:20:08.828Z,99.99
2018-06-24T00:21:08.851Z,99.99
2018-06-24T00:23:08.635Z,99.99
2018-06-24T00:24:08.911Z,99.99
2018-06-24T00:25:08.934Z,99.99
2018-06-24T00:26:08.956Z,99.99
2018-06-24T00:27:08.977Z,99.99
2018-06-24T00:28:23.661Z,99.99
2018-06-24T00:29:09.025Z,99.99
2018-06-24T00:30:09.044Z,99.99
2018-06-24T00:31:09.065Z,99.99
2018-06-24T00:32:09.086Z,99.99
2018-06-24T00:33:09.110Z,99.99
2018-06-24T00:34:09.127Z,99.99
2018-06-24T00:35:09.160Z,99.99
2018-06-24T00:36:09.175Z,99.99
2018-06-24T00:37:09.306Z,99.99
2018-06-24T00:38:09.216Z,99.99
2018-06-24T00:39:09.238Z,99.99
2018-06-24T00:40:09.262Z,99.99
2018-06-24T00:41:09.281Z,99.99
2018-06-24T00:42:09.302Z,99.99
2018-06-24T00:43:23.987Z,99.99
2018-06-24T00:44:09.350Z,99.99
2018-06-24T00:45:09.371Z,99.99
2018-06-24T00:46:09.133Z,99.99
2018-06-24T00:47:09.413Z,99.99
2018-06-24T00:48:09.433Z,99.99
2018-06-24T00:49:09.455Z,99.99
2018-06-24T00:50:09.480Z,99.99
2018-06-24T00:51:09.502Z,99.99
2018-06-24T00:53:09.542Z,99.99
2018-06-24T00:54:09.563Z,99.99
2018-06-24T00:55:09.585Z,99.99
2018-06-24T00:56:09.605Z,99.99
2018-06-24T00:57:09.629Z,99.99
2018-06-24T00:58:09.392Z,99.99
2018-06-24T00:59:09.669Z,99.99
2018-06-24T01:00:09.693Z,99.99
2018-06-24T01:01:09.717Z,99.99
2018-06-24T01:02:09.787Z,99.99
2018-06-24T01:03:09.762Z,99.99
2018-06-24T01:04:09.520Z,99.99
2018-06-24T01:05:09.803Z,99.99
2018-06-24T01:06:09.822Z,99.99
2018-06-24T01:07:09.852Z,99.99
2018-06-24T01:08:09.870Z,99.99
2018-06-24T01:09:09.885Z,99.99
2018-06-24T01:11:09.677Z,99.99
2018-06-24T01:12:09.951Z,99.99
2018-06-24T01:13:09.974Z,99.99
2018-06-24T01:14:09.995Z,99.99
2018-06-24T01:15:24.676Z,99.99
2018-06-24T01:16:10.037Z,99.99
2018-06-24T01:17:10.062Z,99.99
2018-06-24T01:18:10.078Z,99.99
2018-06-24T01:19:10.101Z,99.99
2018-06-24T01:20:09.865Z,99.99
2018-06-24T01:21:10.150Z,99.99
2018-06-24T01:22:10.177Z,99.99
2018-06-24T01:23:10.190Z,99.99
2018-06-24T01:24:10.214Z,99.99
2018-06-24T01:25:10.241Z,99.99
2018-06-24T01:26:10.252Z,99.99
2018-06-24T01:27:10.274Z,99.99
2018-06-24T01:28:10.294Z,99.99
2018-06-24T01:29:10.332Z,99.99
2018-06-24T01:30:10.348Z,99.99
2018-06-24T01:31:25.021Z,99.99
2018-06-24T01:32:10.381Z,99.99
2018-06-24T01:33:10.402Z,99.99
2018-06-24T01:34:10.371Z,99.99
2018-06-24T01:35:10.186Z,99.99
2018-06-24T01:36:10.466Z,99.99
2018-06-24T01:37:10.489Z,99.99
2018-06-24T01:38:10.509Z,99.99
2018-06-24T01:40:10.557Z,99.99
2018-06-24T01:41:10.574Z,99.99
2018-06-24T01:42:10.338Z,99.99
2018-06-24T01:43:10.617Z,99.99
2018-06-24T01:44:10.637Z,99.99
2018-06-24T01:45:10.661Z,99.99
2018-06-24T01:46:10.423Z,99.99
2018-06-24T01:47:25.369Z,99.99
2018-06-24T01:48:10.724Z,99.99
2018-06-24T01:49:10.750Z,99.99
2018-06-24T01:50:10.769Z,99.99
2018-06-24T01:52:10.812Z,99.99
2018-06-24T01:53:10.833Z,99.99
2018-06-24T01:54:10.597Z,99.99
2018-06-24T01:55:10.876Z,99.99
2018-06-24T01:57:10.921Z,99.99
2018-06-24T01:58:10.941Z,99.99
2018-06-24T01:59:10.962Z,99.99
2018-06-24T02:00:10.726Z,99.99
2018-06-24T02:01:10.747Z,99.99
2018-06-24T02:02:11.029Z,99.99
2018-06-24T02:03:25.709Z,99.99
2018-06-24T02:04:10.812Z,99.99
2018-06-24T02:05:11.092Z,99.99
2018-06-24T02:06:11.111Z,99.99
2018-06-24T02:07:11.136Z,99.99
2018-06-24T02:08:11.156Z,99.99
2018-06-24T02:09:11.181Z,99.99
2018-06-24T02:10:10.940Z,99.99
2018-06-24T02:12:11.244Z,99.99
2018-06-24T02:13:11.266Z,99.99
2018-06-24T02:14:11.284Z,99.99
2018-06-24T02:15:11.308Z,99.99
2018-06-24T02:16:11.337Z,99.99
2018-06-24T02:17:11.350Z,99.99
2018-06-24T02:18:26.034Z,99.99
2018-06-24T02:19:11.393Z,99.99
2018-06-24T02:20:11.415Z,99.99
2018-06-24T02:21:11.437Z,99.99
2018-06-24T02:22:11.466Z,99.99
2018-06-24T02:23:11.223Z,99.99
2018-06-24T02:24:11.500Z,99.99
2018-06-24T02:25:11.524Z,99.99
2018-06-24T02:26:11.545Z,99.99
2018-06-24T02:28:11.329Z,99.99
2018-06-24T02:29:11.608Z,99.99
2018-06-24T02:30:11.631Z,99.99
2018-06-24T02:31:11.752Z,99.99
2018-06-24T02:32:11.677Z,99.99
2018-06-24T02:33:11.438Z,99.99
2018-06-24T02:34:11.716Z,99.99
2018-06-24T02:35:11.740Z,99.99
2018-06-24T02:37:11.782Z,99.99
2018-06-24T02:38:11.804Z,99.99
2018-06-24T02:39:11.826Z,99.99
2018-06-24T02:40:11.848Z,99.99
2018-06-24T02:41:11.876Z,99.99
2018-06-24T02:42:11.890Z,99.99
2018-06-24T02:43:11.961Z,99.99
2018-06-24T02:44:11.938Z,99.99
2018-06-24T02:45:11.955Z,99.99
2018-06-24T02:46:11.975Z,99.99
2018-06-24T02:47:11.995Z,99.99
2018-06-24T02:48:12.019Z,99.99
2018-06-24T02:49:12.039Z,99.99
2018-06-24T02:50:26.722Z,99.99
2018-06-24T02:51:12.083Z,99.99
2018-06-24T02:52:12.107Z,99.99
2018-06-24T02:53:11.867Z,99.99
2018-06-24T02:54:12.188Z,99.99
2018-06-24T02:55:12.168Z,99.99
2018-06-24T02:56:12.191Z,99.99
2018-06-24T02:57:12.212Z,99.99
2018-06-24T02:58:12.267Z,99.99
2018-06-24T02:59:12.251Z,99.99
2018-06-24T03:00:12.017Z,99.99
2018-06-24T03:01:12.294Z,99.99
2018-06-24T03:02:12.320Z,99.99
2018-06-24T03:03:12.367Z,99.99
2018-06-24T03:04:12.377Z,99.99
2018-06-24T03:05:12.389Z,99.99
2018-06-24T03:06:27.064Z,99.99
2018-06-24T03:07:12.526Z,99.99
2018-06-24T03:08:12.454Z,99.99
2018-06-24T03:09:12.466Z,99.99
2018-06-24T03:10:12.492Z,99.99
2018-06-24T03:11:12.512Z,99.99
2018-06-24T03:12:12.279Z,99.99
2018-06-24T03:13:12.575Z,99.99
2018-06-24T03:14:12.579Z,99.99
2018-06-24T03:15:12.598Z,99.99
2018-06-24T03:16:12.362Z,99.99
2018-06-24T03:17:12.387Z,99.99
2018-06-24T03:18:12.668Z,99.99
2018-06-24T03:19:12.691Z,99.99
2018-06-24T03:20:12.704Z,99.99
2018-06-24T03:21:12.986Z,99.99
2018-06-24T03:22:27.406Z,99.99
2018-06-24T03:23:12.767Z,99.99
2018-06-24T03:24:12.531Z,99.99
2018-06-24T03:25:12.810Z,99.99
2018-06-24T03:26:12.576Z,99.99
2018-06-24T03:27:12.852Z,99.99
2018-06-24T03:28:12.875Z,99.99
2018-06-24T03:29:12.895Z,99.99
2018-06-24T03:30:12.922Z,99.99
2018-06-24T03:32:12.964Z,99.99
2018-06-24T03:33:12.980Z,99.99
2018-06-24T03:34:13.008Z,99.99
2018-06-24T03:35:13.023Z,99.99
2018-06-24T03:36:13.051Z,99.99
2018-06-24T03:37:13.165Z,99.99
2018-06-24T03:38:27.749Z,99.99
2018-06-24T03:39:13.107Z,99.99
2018-06-24T03:40:13.131Z,99.99
2018-06-24T03:41:13.152Z,99.99
2018-06-24T03:42:12.916Z,99.99
2018-06-24T03:43:13.193Z,99.99
2018-06-24T03:44:13.220Z,99.99
2018-06-24T03:45:13.241Z,99.99
2018-06-24T03:46:13.001Z,99.99
2018-06-24T03:47:13.283Z,99.99
2018-06-24T03:48:13.305Z,99.99
2018-06-24T03:49:13.322Z,99.99
2018-06-24T03:50:13.344Z,99.99
2018-06-24T03:51:13.468Z,99.99
2018-06-24T03:52:13.390Z,99.99
2018-06-24T03:53:28.070Z,99.99
2018-06-24T03:54:13.432Z,99.99
2018-06-24T03:55:13.456Z,99.99
2018-06-24T03:56:13.217Z,99.99
2018-06-24T03:57:13.496Z,99.99
2018-06-24T03:58:13.675Z,99.99
2018-06-24T03:59:13.535Z,99.99
2018-06-24T04:01:13.582Z,99.99
2018-06-24T04:02:13.342Z,99.99
2018-06-24T04:03:13.624Z,99.99
2018-06-24T04:04:13.648Z,99.99
2018-06-24T04:05:13.667Z,99.99
2018-06-24T04:06:13.740Z,99.99
2018-06-24T04:07:13.708Z,99.99
2018-06-24T04:08:13.731Z,99.99
2018-06-24T04:09:13.759Z,99.99
2018-06-24T04:10:13.774Z,99.99
2018-06-24T04:11:13.796Z,99.99
2018-06-24T04:12:13.563Z,99.99
2018-06-24T04:13:13.841Z,99.99
2018-06-24T04:14:13.871Z,99.99
2018-06-24T04:15:13.886Z,99.99
2018-06-24T04:16:13.653Z,99.99
2018-06-24T04:17:13.928Z,99.99
2018-06-24T04:19:13.968Z,99.99
2018-06-24T04:20:13.993Z,99.99
2018-06-24T04:21:14.015Z,99.99
2018-06-24T04:22:14.036Z,99.99
2018-06-24T04:23:14.057Z,99.99
2018-06-24T04:24:13.818Z,99.99
2018-06-24T04:25:28.757Z,99.99
2018-06-24T04:26:14.117Z,99.99
2018-06-24T04:28:14.160Z,99.99
2018-06-24T04:29:14.183Z,99.99
2018-06-24T04:30:14.204Z,99.99
2018-06-24T04:32:14.245Z,99.99
2018-06-24T04:33:14.011Z,99.99
2018-06-24T04:34:14.294Z,99.99
2018-06-24T04:35:14.310Z,99.99
2018-06-24T04:37:14.357Z,99.99
2018-06-24T04:38:14.379Z,99.99
2018-06-24T04:39:14.407Z,99.99
2018-06-24T04:40:14.421Z,99.99
2018-06-24T04:41:29.102Z,99.99
2018-06-24T04:42:14.467Z,99.99
2018-06-24T04:43:14.228Z,99.99
2018-06-24T04:44:14.507Z,99.99
2018-06-24T04:45:14.529Z,99.99
2018-06-24T04:46:14.551Z,99.99
2018-06-24T04:47:14.572Z,99.99
2018-06-24T04:48:14.593Z,99.99
2018-06-24T04:49:14.617Z,99.99
2018-06-24T04:50:14.639Z,99.99
2018-06-24T04:51:14.659Z,99.99
2018-06-24T04:52:14.683Z,99.99
2018-06-24T04:54:14.722Z,99.99
2018-06-24T04:55:14.489Z,99.99
2018-06-24T04:56:14.768Z,99.99
2018-06-24T04:57:29.449Z,99.99
2018-06-24T04:58:14.552Z,99.99
2018-06-24T04:59:14.837Z,99.99
2018-06-24T05:00:14.859Z,99.99
2018-06-24T05:01:14.874Z,99.99
2018-06-24T05:02:14.898Z,99.99
2018-06-24T05:03:14.939Z,99.99
2018-06-24T05:04:14.941Z,99.99
2018-06-24T05:05:14.966Z,99.99
2018-06-24T05:06:14.727Z,99.99
2018-06-24T05:08:15.029Z,99.99
2018-06-24T05:09:15.048Z,99.99
2018-06-24T05:10:15.073Z,99.99
2018-06-24T05:11:15.093Z,99.99
2018-06-24T05:12:15.116Z,99.99
2018-06-24T05:13:29.798Z,99.99
2018-06-24T05:14:15.158Z,99.99
2018-06-24T05:15:15.187Z,99.99
2018-06-24T05:16:14.945Z,99.99
2018-06-24T05:17:14.967Z,99.99
2018-06-24T05:18:15.250Z,99.99
2018-06-24T05:19:15.268Z,99.99
2018-06-24T05:20:15.032Z,99.99
2018-06-24T05:22:15.342Z,99.99
2018-06-24T05:24:15.380Z,99.99
2018-06-24T05:25:15.398Z,99.99
2018-06-24T05:26:15.423Z,99.99
2018-06-24T05:27:15.442Z,99.99
2018-06-24T05:28:30.126Z,99.99
2018-06-24T05:29:15.488Z,99.99
2018-06-24T05:30:15.509Z,99.99
2018-06-24T05:31:15.532Z,99.99
2018-06-24T05:32:15.555Z,99.99
2018-06-24T05:33:15.572Z,99.99
2018-06-24T05:34:15.596Z,99.99
2018-06-24T05:35:15.618Z,99.99
2018-06-24T05:36:15.649Z,99.99
2018-06-24T05:37:15.666Z,99.99
2018-06-24T05:38:15.685Z,99.99
2018-06-24T05:39:15.448Z,99.99
2018-06-24T05:40:15.727Z,99.99
2018-06-24T05:41:15.747Z,99.99
2018-06-24T05:42:15.780Z,99.99
2018-06-24T05:43:15.535Z,99.99
2018-06-24T05:44:15.815Z,99.99
2018-06-24T05:45:15.837Z,99.99
2018-06-24T05:46:15.859Z,99.99
2018-06-24T05:47:15.880Z,99.99
2018-06-24T05:48:15.901Z,99.99
2018-06-24T05:49:15.928Z,99.99
2018-06-24T05:50:15.952Z,99.99
2018-06-24T05:51:15.973Z,99.99
2018-06-24T05:52:15.990Z,99.99
2018-06-24T05:53:16.015Z,99.99
2018-06-24T05:54:16.103Z,99.99
2018-06-24T05:55:16.061Z,99.99
2018-06-24T05:56:16.079Z,99.99
2018-06-24T05:57:16.099Z,99.99
2018-06-24T05:58:16.120Z,99.99
2018-06-24T05:59:16.140Z,99.99
2018-06-24T06:00:30.875Z,99.99
2018-06-24T06:01:16.186Z,99.99
2018-06-24T06:02:16.213Z,99.99
2018-06-24T06:03:15.972Z,99.99
2018-06-24T06:04:16.251Z,99.99
2018-06-24T06:05:16.017Z,99.99
2018-06-24T06:06:16.301Z,99.99
2018-06-24T06:07:16.317Z,99.99
2018-06-24T06:09:16.367Z,99.99
2018-06-24T06:10:16.520Z,99.99
2018-06-24T06:11:16.149Z,99.99
2018-06-24T06:12:16.429Z,99.99
2018-06-24T06:13:16.450Z,99.99
2018-06-24T06:14:16.472Z,99.99
2018-06-24T06:15:16.494Z,99.99
2018-06-24T06:16:31.177Z,99.99
2018-06-24T06:17:16.540Z,99.99
2018-06-24T06:18:16.300Z,99.99
2018-06-24T06:19:16.580Z,99.99
2018-06-24T06:20:16.602Z,99.99
2018-06-24T06:21:16.626Z,99.99
2018-06-24T06:22:16.647Z,99.99
2018-06-24T06:23:16.671Z,99.99
2018-06-24T06:24:16.437Z,99.99
2018-06-24T06:25:16.714Z,99.99
2018-06-24T06:28:16.781Z,99.99
2018-06-24T06:29:16.807Z,99.99
2018-06-24T06:30:16.942Z,99.99
2018-06-24T06:31:16.590Z,99.99
2018-06-24T06:32:31.529Z,99.99
2018-06-24T06:33:16.900Z,99.99
2018-06-24T06:34:16.913Z,99.99
2018-06-24T06:35:16.937Z,99.99
2018-06-24T06:36:16.956Z,99.99
2018-06-24T06:37:16.980Z,99.99
2018-06-24T06:38:17.006Z,99.99
2018-06-24T06:39:17.022Z,99.99
2018-06-24T06:41:17.066Z,99.99
2018-06-24T06:42:17.089Z,99.99
2018-06-24T06:43:17.114Z,99.99
2018-06-24T06:44:17.133Z,99.99
2018-06-24T06:45:17.667Z,99.99
2018-06-24T06:46:17.179Z,99.99
2018-06-24T06:47:17.202Z,99.99
2018-06-24T06:48:31.883Z,99.99
2018-06-24T06:49:17.246Z,99.99
2018-06-24T06:50:17.272Z,99.99
2018-06-24T06:51:17.037Z,99.99
2018-06-24T06:52:17.053Z,99.99
2018-06-24T06:53:17.338Z,99.99
2018-06-24T06:54:17.355Z,99.99
2018-06-24T06:55:17.377Z,99.99
2018-06-24T06:56:17.404Z,99.99
2018-06-24T06:57:17.427Z,99.99
2018-06-24T06:58:17.453Z,99.99
2018-06-24T06:59:17.210Z,99.99
2018-06-24T07:00:17.605Z,99.99
2018-06-24T07:01:17.512Z,99.99
2018-06-24T07:02:17.536Z,99.99
2018-06-24T07:03:32.244Z,99.99
2018-06-24T07:04:17.578Z,99.99
2018-06-24T07:05:17.599Z,99.99
2018-06-24T07:06:17.623Z,99.99
2018-06-24T07:07:17.387Z,99.99
2018-06-24T07:08:17.668Z,99.99
2018-06-24T07:09:17.690Z,99.99
2018-06-24T07:10:17.710Z,99.99
2018-06-24T07:11:17.475Z,99.99
2018-06-24T07:12:17.754Z,99.99
2018-06-24T07:13:17.779Z,99.99
2018-06-24T07:14:17.807Z,99.99
2018-06-24T07:15:17.875Z,99.99
2018-06-24T07:16:17.846Z,99.99
2018-06-24T07:17:17.873Z,99.99
2018-06-24T07:18:17.896Z,99.99
2018-06-24T07:19:17.912Z,99.99
2018-06-24T07:20:17.937Z,99.99
2018-06-24T07:21:17.958Z,99.99
2018-06-24T07:23:18.002Z,99.99
2018-06-24T07:24:18.025Z,99.99
2018-06-24T07:26:18.071Z,99.99
2018-06-24T07:27:18.100Z,99.99
2018-06-24T07:28:17.857Z,99.99
2018-06-24T07:29:18.138Z,99.99
2018-06-24T07:30:18.260Z,99.99
2018-06-24T07:31:18.184Z,99.99
2018-06-24T07:32:18.206Z,99.99
2018-06-24T07:33:18.457Z,99.99
2018-06-24T07:34:18.254Z,99.99
2018-06-24T07:35:32.934Z,99.99
2018-06-24T07:36:18.295Z,99.99
2018-06-24T07:37:18.061Z,99.99
2018-06-24T07:38:18.337Z,99.99
2018-06-24T07:39:18.537Z,99.99
2018-06-24T07:40:18.129Z,99.99
2018-06-24T07:41:18.409Z,99.99
2018-06-24T07:42:18.437Z,99.99
2018-06-24T07:43:18.197Z,99.99
2018-06-24T07:44:18.486Z,99.99
2018-06-24T07:45:18.498Z,99.99
2018-06-24T07:46:18.521Z,99.99
2018-06-24T07:47:18.545Z,99.99
2018-06-24T07:48:18.568Z,99.99
2018-06-24T07:49:18.589Z,99.99
2018-06-24T07:50:18.684Z,99.99
2018-06-24T07:51:33.297Z,99.99
2018-06-24T07:52:18.660Z,99.99
2018-06-24T07:53:18.681Z,99.99
2018-06-24T07:54:18.706Z,99.99
2018-06-24T07:55:18.726Z,99.99
2018-06-24T07:56:18.752Z,99.99
2018-06-24T07:57:18.797Z,99.99
2018-06-24T07:58:18.539Z,99.99
2018-06-24T07:59:18.561Z,99.99
2018-06-24T08:00:18.842Z,99.99
2018-06-24T08:01:18.864Z,99.99
2018-06-24T08:02:18.629Z,99.99
2018-06-24T08:03:18.967Z,99.99
2018-06-24T08:04:18.931Z,99.99
2018-06-24T08:05:19.124Z,99.99
2018-06-24T08:06:19.077Z,99.99
2018-06-24T08:07:33.661Z,99.99
2018-06-24T08:08:19.025Z,99.99
2018-06-24T08:09:18.788Z,99.99
2018-06-24T08:10:19.066Z,99.99
2018-06-24T08:11:19.193Z,99.99
2018-06-24T08:12:19.115Z,99.99
2018-06-24T08:13:19.136Z,99.99
2018-06-24T08:14:19.160Z,99.99
2018-06-24T08:15:19.181Z,99.99
2018-06-24T08:16:19.208Z,99.99
2018-06-24T08:17:19.240Z,99.99
2018-06-24T08:19:19.274Z,99.99
2018-06-24T08:20:19.294Z,99.99
2018-06-24T08:21:19.326Z,99.99
2018-06-24T08:22:19.344Z,99.99
2018-06-24T08:23:34.126Z,99.99
2018-06-24T08:24:19.387Z,99.99
2018-06-24T08:25:19.411Z,99.99
2018-06-24T08:26:19.431Z,99.99
2018-06-24T08:27:19.459Z,99.99
2018-06-24T08:28:19.479Z,99.99
2018-06-24T08:30:19.529Z,99.99
2018-06-24T08:31:19.549Z,99.99
2018-06-24T08:32:19.573Z,99.99
2018-06-24T08:33:19.594Z,99.99
2018-06-24T08:34:19.617Z,99.99
2018-06-24T08:35:19.645Z,99.99
2018-06-24T08:36:19.666Z,99.99
2018-06-24T08:37:19.689Z,99.99
2018-06-24T08:38:34.368Z,99.99
2018-06-24T08:39:19.741Z,99.99
2018-06-24T08:40:19.854Z,99.99
2018-06-24T08:41:19.620Z,99.99
2018-06-24T08:42:19.800Z,99.99
2018-06-24T08:43:19.832Z,99.99
2018-06-24T08:44:19.843Z,99.99
2018-06-24T08:45:19.866Z,99.99
2018-06-24T08:46:19.632Z,99.99
2018-06-24T08:47:20.119Z,99.99
2018-06-24T08:48:19.935Z,99.99
2018-06-24T08:49:19.958Z,99.99
2018-06-24T08:50:19.986Z,99.99
2018-06-24T08:51:19.745Z,99.99
2018-06-24T08:52:20.034Z,99.99
2018-06-24T08:53:20.104Z,99.99
2018-06-24T08:54:20.143Z,99.99
2018-06-24T08:55:20.094Z,99.99
2018-06-24T08:56:20.120Z,99.99
2018-06-24T08:57:20.247Z,99.99
2018-06-24T08:58:20.161Z,99.99
2018-06-24T08:59:20.189Z,99.99
2018-06-24T09:00:20.213Z,99.99
2018-06-24T09:01:20.232Z,99.99
2018-06-24T09:02:20.255Z,99.99
2018-06-24T09:04:20.301Z,99.99
2018-06-24T09:05:20.423Z,99.99
2018-06-24T09:06:20.346Z,99.99
2018-06-24T09:07:20.369Z,99.99
2018-06-24T09:08:20.392Z,99.99
2018-06-24T09:09:20.414Z,99.99
2018-06-24T09:10:35.100Z,99.99
2018-06-24T09:11:20.462Z,99.99
2018-06-24T09:12:20.483Z,99.99
2018-06-24T09:13:20.506Z,99.99
2018-06-24T09:15:20.296Z,99.99
2018-06-24T09:16:20.580Z,99.99
2018-06-24T09:17:20.600Z,99.99
2018-06-24T09:19:20.388Z,99.99
2018-06-24T09:20:20.669Z,99.99
2018-06-24T09:21:20.778Z,99.99
2018-06-24T09:22:20.765Z,99.99
2018-06-24T09:23:20.739Z,99.99
2018-06-24T09:25:20.784Z,99.99
2018-06-24T09:26:35.472Z,99.99
2018-06-24T09:27:20.837Z,99.99
2018-06-24T09:28:20.853Z,99.99
2018-06-24T09:29:20.876Z,99.99
2018-06-24T09:30:20.904Z,99.99
2018-06-24T09:31:20.924Z,99.99
2018-06-24T09:32:20.963Z,99.99
2018-06-24T09:33:20.972Z,99.99
2018-06-24T09:34:21.000Z,99.99
2018-06-24T09:35:21.017Z,99.99
2018-06-24T09:36:21.043Z,99.99
2018-06-24T09:37:21.066Z,99.91
2018-06-24T09:38:21.090Z,99.73
2018-06-24T09:39:21.117Z,99.99
2018-06-24T09:40:21.138Z,99.19
2018-06-24T09:41:21.164Z,99.99
2018-06-24T09:42:35.847Z,99.99
2018-06-24T09:43:21.214Z,99.99
2018-06-24T09:44:21.233Z,99.99
2018-06-24T09:45:20.999Z,98.62
2018-06-24T09:46:21.282Z,99.05
2018-06-24T09:47:21.047Z,99.99
2018-06-24T09:48:21.328Z,99.99
2018-06-24T09:49:21.361Z,99.82
2018-06-24T09:50:21.376Z,99.44
2018-06-24T09:51:21.401Z,99.24
2018-06-24T09:52:21.426Z,99.73
2018-06-24T09:53:21.451Z,99.99
2018-06-24T09:54:21.218Z,99.73
2018-06-24T09:55:21.500Z,99.53
2018-06-24T09:56:21.520Z,99.99
2018-06-24T09:57:21.545Z,98.77
2018-06-24T09:58:36.229Z,98.67
2018-06-24T09:59:21.597Z,98.77
2018-06-24T10:00:21.622Z,99.63
2018-06-24T10:01:21.638Z,98.96
2018-06-24T10:02:21.661Z,99.99
2018-06-24T10:03:21.459Z,99.99
2018-06-24T10:04:21.711Z,98.62
2018-06-24T10:05:21.746Z,97.28
2018-06-24T10:06:21.758Z,96.66
2018-06-24T10:07:21.785Z,97.24
2018-06-24T10:08:21.815Z,93.87
2018-06-24T10:09:21.830Z,93.49
2018-06-24T10:10:21.858Z,94.07
2018-06-24T10:11:21.622Z,93.3
2018-06-24T10:12:21.904Z,93.01
2018-06-24T10:13:36.593Z,93.39
2018-06-24T10:14:21.951Z,93.68
2018-06-24T10:15:21.978Z,94.54
2018-06-24T10:16:22.008Z,93.2
2018-06-24T10:17:22.058Z,94.54
2018-06-24T10:18:22.053Z,95.75
2018-06-24T10:19:21.815Z,95.94
2018-06-24T10:20:22.106Z,96.13
2018-06-24T10:22:21.888Z,96.22
2018-06-24T10:23:22.172Z,97.28
2018-06-24T10:24:21.937Z,95.75
2018-06-24T10:25:22.223Z,95.41
2018-06-24T10:26:22.247Z,96.42
2018-06-24T10:27:22.265Z,96.47
2018-06-24T10:28:22.292Z,95.7
2018-06-24T10:29:22.424Z,96.03
2018-06-24T10:30:22.342Z,97.95
2018-06-24T10:31:22.369Z,96.8
2018-06-24T10:32:22.130Z,96.51
2018-06-24T10:33:22.414Z,96.03
2018-06-24T10:34:22.438Z,95.03
2018-06-24T10:35:22.467Z,95.41
2018-06-24T10:36:22.228Z,95.5
2018-06-24T10:37:22.512Z,93.73
2018-06-24T10:38:22.535Z,93.73
2018-06-24T10:39:22.569Z,92.48
2018-06-24T10:40:22.584Z,92
2018-06-24T10:41:22.620Z,91.37
2018-06-24T10:42:22.643Z,90.31
2018-06-24T10:43:22.654Z,90.12
2018-06-24T10:44:22.684Z,89.21
2018-06-24T10:45:37.368Z,89.93
2018-06-24T10:46:22.785Z,90.41
2018-06-24T10:47:22.765Z,91.56
2018-06-24T10:48:22.781Z,92.33
2018-06-24T10:49:22.543Z,94.11
2018-06-24T10:50:22.569Z,94.59
2018-06-24T10:51:22.594Z,94.83
2018-06-24T10:52:22.875Z,95.31
2018-06-24T10:53:22.641Z,96.61
2018-06-24T10:54:22.666Z,96.27
2018-06-24T10:55:22.951Z,95.6
2018-06-24T10:56:22.973Z,97.19
2018-06-24T10:57:23.005Z,96.8
2018-06-24T10:58:22.764Z,96.56
2018-06-24T10:59:22.789Z,96.18
2018-06-24T11:00:23.070Z,96.08
2018-06-24T11:01:37.756Z,95.5
2018-06-24T11:02:22.862Z,96.94
2018-06-24T11:03:22.885Z,96.27
2018-06-24T11:04:23.173Z,96.61
2018-06-24T11:05:23.192Z,97.66
2018-06-24T11:06:23.217Z,97.28
2018-06-24T11:07:23.242Z,97.86
2018-06-24T11:08:23.264Z,96.89
2018-06-24T11:09:23.031Z,96.42
2018-06-24T11:10:23.310Z,96.03
2018-06-24T11:11:23.340Z,95.03
2018-06-24T11:12:23.103Z,94.83
2018-06-24T11:13:23.387Z,95.5
2018-06-24T11:14:23.408Z,93.15
2018-06-24T11:15:23.432Z,91.9
2018-06-24T11:16:23.508Z,91.23
2018-06-24T11:17:38.143Z,91.96
2018-06-24T11:18:23.505Z,91.66
2018-06-24T11:19:23.530Z,93.3
2018-06-24T11:20:23.298Z,93.05
2018-06-24T11:21:23.577Z,92.96
2018-06-24T11:22:23.603Z,91.71
2018-06-24T11:23:23.626Z,92.48
2018-06-24T11:24:23.653Z,94.26
2018-06-24T11:25:23.678Z,94.74
2018-06-24T11:26:23.703Z,95.6
2018-06-24T11:27:23.727Z,96.27
2018-06-24T11:28:23.751Z,95.12
2018-06-24T11:29:23.772Z,94.54
2018-06-24T11:30:23.797Z,95.89
2018-06-24T11:31:23.569Z,96.37
2018-06-24T11:32:23.847Z,95.5
2018-06-24T11:33:38.532Z,94.07
2018-06-24T11:34:23.637Z,93.92
2018-06-24T11:35:23.922Z,94.74
2018-06-24T11:36:23.946Z,95.31
2018-06-24T11:37:23.968Z,94.93
2018-06-24T11:38:23.735Z,94.16
2018-06-24T11:39:24.014Z,94.79
2018-06-24T11:40:24.045Z,95.94
2018-06-24T11:41:24.067Z,95.46
2018-06-24T11:42:24.088Z,95.07
2018-06-24T11:44:24.136Z,94.07
2018-06-24T11:45:24.163Z,93.39
2018-06-24T11:46:24.189Z,92.39
2018-06-24T11:47:24.209Z,93.35
2018-06-24T11:48:38.895Z,92.43
2018-06-24T11:49:24.263Z,91.86
2018-06-24T11:50:24.380Z,92.05
2018-06-24T11:51:24.307Z,91.66
2018-06-24T11:52:24.072Z,90.22
2018-06-24T11:53:24.352Z,90.52
2018-06-24T11:54:24.378Z,90.22
2018-06-24T11:57:24.450Z,90.56
2018-06-24T11:58:24.475Z,90.95
2018-06-24T11:59:24.505Z,89.89
2018-06-24T12:00:24.675Z,90.75
2018-06-24T12:01:24.546Z,91.14
2018-06-24T12:02:24.576Z,90.66
2018-06-24T12:03:24.594Z,90.18
2018-06-24T12:04:24.622Z,90.13
2018-06-24T12:05:24.392Z,89.07
2018-06-24T12:06:24.667Z,89.17
2018-06-24T12:07:24.459Z,87.68
2018-06-24T12:08:24.713Z,86.77
2018-06-24T12:09:24.740Z,87.01
2018-06-24T12:10:24.763Z,85.66
2018-06-24T12:11:24.787Z,86.24
2018-06-24T12:12:24.809Z,85.13
2018-06-24T12:13:24.836Z,84.55
2018-06-24T12:14:24.859Z,85.32
2018-06-24T12:15:24.626Z,85.99
2018-06-24T12:16:24.907Z,85.61
2018-06-24T12:17:27.726Z,85.27
2018-06-24T12:18:24.960Z,84.11
2018-06-24T12:19:24.985Z,83.73
2018-06-24T12:20:39.669Z,83.87
2018-06-24T12:21:25.030Z,84.17
2018-06-24T12:22:25.058Z,84.36
2018-06-24T12:23:25.127Z,83.97
2018-06-24T12:24:25.104Z,83.44
2018-06-24T12:25:25.127Z,83.63
2018-06-24T12:26:24.898Z,81.75
2018-06-24T12:27:25.175Z,81.3
2018-06-24T12:28:25.201Z,79.28
2018-06-24T12:29:25.225Z,78.46
2018-06-24T12:30:25.250Z,76.92
2018-06-24T12:31:25.275Z,77.06
2018-06-24T12:32:25.300Z,75.51
2018-06-24T12:33:25.066Z,75.61
2018-06-24T12:34:25.090Z,76.34
2018-06-24T12:35:25.372Z,75.48
2018-06-24T12:36:40.124Z,76.92
2018-06-24T12:37:25.189Z,77.84
2018-06-24T12:38:25.446Z,76.92
2018-06-24T12:39:25.471Z,76.92
2018-06-24T12:40:25.498Z,76.31
2018-06-24T12:41:25.264Z,77.94
2018-06-24T12:42:25.552Z,78
2018-06-24T12:43:25.672Z,78.38
2018-06-24T12:44:25.596Z,79.25
2018-06-24T12:45:25.621Z,79.15
2018-06-24T12:46:25.650Z,79.92
2018-06-24T12:47:25.672Z,78.09
2018-06-24T12:48:25.698Z,78.48
2018-06-24T12:49:25.721Z,79.25
2018-06-24T12:50:25.589Z,80.65
2018-06-24T12:51:25.774Z,79.35
2018-06-24T12:52:40.489Z,80.36
2018-06-24T12:53:25.821Z,81.28
2018-06-24T12:54:25.844Z,82.15
2018-06-24T12:55:25.874Z,81.52
2018-06-24T12:56:25.897Z,81.09
2018-06-24T12:57:25.919Z,82.53
2018-06-24T12:58:26.313Z,83.07
2018-06-24T12:59:26.655Z,83.84
2018-06-24T13:00:27.664Z,85.04
2018-06-24T13:01:25.759Z,85.14
2018-06-24T13:02:26.042Z,85.04
2018-06-24T13:03:26.064Z,86
2018-06-24T13:04:26.088Z,85.91
2018-06-24T13:05:25.891Z,86.77
2018-06-24T13:06:26.137Z,88.11
2018-06-24T13:07:25.903Z,87.54
2018-06-24T13:08:40.856Z,86.77
2018-06-24T13:09:26.213Z,86.87
2018-06-24T13:10:26.235Z,87.05
2018-06-24T13:11:26.005Z,86.54
2018-06-24T13:12:26.280Z,86.58
2018-06-24T13:13:26.148Z,85.81
2018-06-24T13:14:26.329Z,84.99
2018-06-24T13:15:26.097Z,84.7
2018-06-24T13:16:26.380Z,83.69
2018-06-24T13:18:26.427Z,82.73
2018-06-24T13:19:26.451Z,81.52
2018-06-24T13:20:26.218Z,81.23
2018-06-24T13:21:26.502Z,80.36
2018-06-24T13:22:26.537Z,80.55
2018-06-24T13:23:41.210Z,80.84
2018-06-24T13:24:26.574Z,80.07
2018-06-24T13:25:26.612Z,80.36
2018-06-24T13:26:26.625Z,80.99
2018-06-24T13:27:26.648Z,81.52
2018-06-24T13:28:26.671Z,81.38
2018-06-24T13:30:26.720Z,80.07
2018-06-24T13:31:26.744Z,80.17